createdAt,value
2023-04-12T00:02:02.972Z,71.20
2023-04-12T00:04:30.271Z,71.25
2023-04-12T00:06:57.935Z,71.61
2023-04-12T00:09:25.241Z,72.44
2023-04-12T00:11:52.185Z,72.36
2023-04-12T00:14:19.325Z,73.01
2023-04-12T00:16:46.393Z,72.56
2023-04-12T00:19:13.332Z,72.75
2023-04-12T00:21:40.312Z,72.27
2023-04-12T00:24:07.650Z,73.04
2023-04-12T00:26:34.877Z,73.49
2023-04-12T00:29:01.811Z,73.39
2023-04-12T00:31:29.290Z,73.85
2023-04-12T00:33:56.715Z,74.05
2023-04-12T00:36:23.761Z,74.67
2023-04-12T00:38:50.661Z,74.56
2023-04-12T00:41:18.102Z,74.23
2023-04-12T00:43:45.028Z,74.48
2023-04-12T00:46:12.349Z,74.85
2023-04-12T00:48:40.083Z,74.54
2023-04-12T00:51:07.885Z,74.14
2023-04-12T00:53:35.699Z,74.45
2023-04-12T00:56:04.173Z,74.40
2023-04-12T00:58:31.885Z,74.09
2023-04-12T01:00:59.241Z,74.67
2023-04-12T01:03:27.829Z,74.67
2023-04-12T01:06:09.621Z,74.35
2023-04-12T01:08:58.289Z,74.94
2023-04-12T01:12:06.635Z,75.50
2023-04-12T01:14:58.845Z,75.11
2023-04-12T01:17:37.895Z,75.66
2023-04-12T01:20:13.431Z,74.39
2023-04-12T01:23:17.835Z,74.84
2023-04-12T01:26:02.635Z,75.07
2023-04-12T01:28:45.582Z,74.60
2023-04-12T01:31:14.130Z,75.31
2023-04-12T01:33:43.320Z,75.16
2023-04-12T01:36:18.231Z,75.38
2023-04-12T01:38:45.737Z,75.19
2023-04-12T01:41:12.718Z,75.62
2023-04-12T01:43:44.652Z,75.65
2023-04-12T01:46:20.407Z,76.32
2023-04-12T01:48:53.092Z,75.89
2023-04-12T01:51:50.241Z,75.73
2023-04-12T01:54:28.122Z,75.30
2023-04-12T01:57:00.366Z,75.55
2023-04-12T01:59:32.113Z,75.13
2023-04-12T02:01:59.204Z,74.70
2023-04-12T02:04:27.775Z,74.31
2023-04-12T02:06:56.102Z,74.28
2023-04-12T02:09:23.785Z,74.32
2023-04-12T02:11:51.033Z,73.61
2023-04-12T02:14:18.118Z,74.29
2023-04-12T02:16:46.345Z,74.31
2023-04-12T02:19:13.865Z,74.11
2023-04-12T02:21:46.696Z,74.59
2023-04-12T02:24:15.599Z,74.33
2023-04-12T02:26:45.026Z,74.59
2023-04-12T02:29:12.911Z,74.22
2023-04-12T02:31:40.192Z,74.25
2023-04-12T02:34:10.779Z,74.59
2023-04-12T02:36:40.565Z,75.48
2023-04-12T02:39:07.811Z,75.53
2023-04-12T02:41:36.383Z,75.75
2023-04-12T02:44:06.150Z,76.31
2023-04-12T02:46:33.214Z,76.10
2023-04-12T02:49:00.217Z,76.40
2023-04-12T02:51:35.287Z,77.31
2023-04-12T02:54:02.543Z,77.69
2023-04-12T02:56:39.061Z,78.05
2023-04-12T02:59:25.264Z,78.59
2023-04-12T03:02:09.069Z,78.18
2023-04-12T03:04:39.810Z,79.17
2023-04-12T03:07:11.360Z,78.84
2023-04-12T03:09:53.306Z,78.89
2023-04-12T03:12:22.824Z,79.10
2023-04-12T03:15:04.225Z,79.72
2023-04-12T03:17:31.239Z,79.24
2023-04-12T03:20:10.659Z,78.91
2023-04-12T03:22:42.395Z,79.44
2023-04-12T03:25:12.560Z,79.02
2023-04-12T03:27:45.182Z,80.22
2023-04-12T03:30:15.302Z,80.40
2023-04-12T03:32:44.045Z,79.84
2023-04-12T03:35:11.650Z,80.33
2023-04-12T03:37:42.734Z,79.65
2023-04-12T03:40:11.790Z,79.73
2023-04-12T03:42:42.230Z,79.14
2023-04-12T03:45:12.422Z,78.58
2023-04-12T03:47:42.809Z,79.32
2023-04-12T03:50:12.272Z,78.86
2023-04-12T03:52:44.255Z,78.56
2023-04-12T03:55:11.915Z,79.18
2023-04-12T03:57:39.043Z,79.32
2023-04-12T04:00:08.858Z,79.70
2023-04-12T04:02:47.250Z,79.77
2023-04-12T04:05:15.841Z,79.77
2023-04-12T04:07:44.770Z,80.14
2023-04-12T04:10:12.789Z,80.13
2023-04-12T04:12:44.728Z,80.18
2023-04-12T04:15:15.058Z,80.55
2023-04-12T04:17:43.100Z,80.69
2023-04-12T04:20:13.541Z,81.03
2023-04-12T04:22:42.979Z,81.27
2023-04-12T04:25:10.510Z,80.92
2023-04-12T04:27:44.786Z,80.84
2023-04-12T04:30:12.717Z,81.43
2023-04-12T04:32:44.217Z,80.97
2023-04-12T04:35:12.295Z,81.36
2023-04-12T04:37:52.756Z,81.52
2023-04-12T04:40:22.038Z,81.63
2023-04-12T04:42:54.625Z,81.25
2023-04-12T04:45:28.755Z,81.72
2023-04-12T04:47:56.677Z,82.01
2023-04-12T04:50:24.787Z,82.13
2023-04-12T04:52:53.339Z,81.62
2023-04-12T04:55:45.347Z,81.33
2023-04-12T04:58:13.476Z,82.10
2023-04-12T05:00:44.832Z,82.06
2023-04-12T05:03:12.641Z,81.95
2023-04-12T05:05:40.305Z,82.14
2023-04-12T05:08:10.843Z,82.79
2023-04-12T05:10:37.792Z,82.89
2023-04-12T05:13:04.701Z,82.07
2023-04-12T05:15:31.939Z,81.98
2023-04-12T05:17:59.842Z,81.42
2023-04-12T05:20:26.806Z,80.74
2023-04-12T05:22:54.005Z,80.78
2023-04-12T05:25:21.094Z,80.38
2023-04-12T05:28:02.625Z,80.52
2023-04-12T05:30:29.993Z,80.48
2023-04-12T05:32:57.648Z,79.56
2023-04-12T05:35:25.673Z,79.41
2023-04-12T05:37:57.994Z,79.23
2023-04-12T05:40:25.080Z,79.12
2023-04-12T05:42:54.593Z,78.90
2023-04-12T05:45:21.652Z,78.63
2023-04-12T05:47:48.686Z,79.21
2023-04-12T05:50:15.781Z,79.97
2023-04-12T05:52:43.678Z,80.28
2023-04-12T05:55:10.723Z,80.82
2023-04-12T05:57:41.013Z,81.05
2023-04-12T06:00:14.303Z,81.38
2023-04-12T06:02:45.657Z,81.48
2023-04-12T06:05:13.219Z,82.13
2023-04-12T06:07:44.547Z,82.21
2023-04-12T06:10:15.799Z,82.45
2023-04-12T06:12:43.035Z,82.20
2023-04-12T06:15:10.636Z,82.05
2023-04-12T06:17:38.206Z,82.31
2023-04-12T06:20:08.689Z,82.46
2023-04-12T06:22:37.753Z,82.70
2023-04-12T06:25:06.113Z,82.72
2023-04-12T06:27:33.101Z,83.58
2023-04-12T06:30:03.034Z,83.80
2023-04-12T06:32:33.785Z,83.43
2023-04-12T06:35:01.141Z,82.85
2023-04-12T06:37:28.161Z,83.02
2023-04-12T06:39:55.078Z,83.77
2023-04-12T06:42:22.083Z,84.85
2023-04-12T06:44:48.951Z,85.90
2023-04-12T06:47:16.221Z,87.27
2023-04-12T06:49:43.149Z,87.72
2023-04-12T06:52:10.122Z,88.12
2023-04-12T06:54:38.358Z,88.47
2023-04-12T06:57:11.036Z,89.14
2023-04-12T06:59:37.945Z,88.45
2023-04-12T07:02:05.014Z,89.27
2023-04-12T07:04:31.904Z,90.71
2023-04-12T07:06:58.873Z,90.30
2023-04-12T07:09:25.961Z,91.26
2023-04-12T07:11:52.901Z,91.21
2023-04-12T07:14:19.912Z,91.41
2023-04-12T07:16:46.862Z,92.21
2023-04-12T07:19:13.822Z,94.27
2023-04-12T07:21:41.419Z,94.39
2023-04-12T07:24:08.446Z,95.51
2023-04-12T07:26:35.462Z,95.23
2023-04-12T07:29:02.433Z,96.75
2023-04-12T07:31:30.790Z,97.23
2023-04-12T07:33:57.821Z,97.31
2023-04-12T07:36:24.841Z,97.99
2023-04-12T07:38:55.832Z,100.00
2023-04-12T07:41:23.287Z,100.00
2023-04-12T07:43:50.403Z,100.00
2023-04-12T07:46:17.447Z,100.00
2023-04-12T07:48:44.459Z,100.00
2023-04-12T07:51:11.650Z,100.00
2023-04-12T07:53:38.773Z,100.00
2023-04-12T07:56:06.928Z,100.00
2023-04-12T07:58:37.393Z,100.00
2023-04-12T08:01:04.616Z,100.00
2023-04-12T08:03:31.752Z,100.00
2023-04-12T08:06:00.036Z,100.00
2023-04-12T08:08:27.304Z,100.00
2023-04-12T08:10:54.605Z,100.00
2023-04-12T08:13:22.290Z,100.00
2023-04-12T08:15:49.416Z,100.00
2023-04-12T08:18:16.454Z,100.00
2023-04-12T08:20:47.052Z,100.00
2023-04-12T08:23:14.030Z,100.00
2023-04-12T08:25:41.198Z,100.00
2023-04-12T08:28:08.303Z,100.00
2023-04-12T08:30:35.829Z,100.00
2023-04-12T08:33:03.007Z,100.00
2023-04-12T08:35:30.343Z,100.00
2023-04-12T08:38:06.972Z,100.00
2023-04-12T08:40:34.198Z,100.00
2023-04-12T08:43:09.983Z,100.00
2023-04-12T08:45:38.151Z,100.00
2023-04-12T08:48:06.141Z,100.00
2023-04-12T08:50:33.520Z,100.00
2023-04-12T08:53:00.809Z,100.00
2023-04-12T08:55:27.722Z,100.00
2023-04-12T08:57:56.869Z,100.00
2023-04-12T09:00:24.406Z,100.00
2023-04-12T09:02:51.722Z,100.00
2023-04-12T09:05:18.969Z,100.00
2023-04-12T09:07:45.911Z,100.00
2023-04-12T09:10:35.164Z,100.00
2023-04-12T09:13:04.001Z,100.00
2023-04-12T09:15:31.293Z,100.00
2023-04-12T09:18:09.466Z,100.00
2023-04-12T09:20:39.822Z,100.00
2023-04-12T09:23:22.048Z,100.00
2023-04-12T09:25:51.764Z,100.00
2023-04-12T09:28:22.990Z,100.00
2023-04-12T09:30:53.158Z,100.00
2023-04-12T09:33:22.370Z,100.00
2023-04-12T09:35:49.838Z,100.00
2023-04-12T09:38:17.166Z,100.00
2023-04-12T09:40:44.217Z,100.00
2023-04-12T09:43:11.313Z,100.00
2023-04-12T09:45:39.062Z,100.00
2023-04-12T09:48:07.383Z,100.00
2023-04-12T09:50:34.829Z,100.00
2023-04-12T09:53:04.025Z,100.00
2023-04-12T09:55:32.434Z,100.00
2023-04-12T09:58:04.059Z,100.00
2023-04-12T10:00:34.363Z,100.00
2023-04-12T10:03:02.884Z,100.00
2023-04-12T10:05:30.287Z,100.00
2023-04-12T10:08:00.444Z,100.00
2023-04-12T10:10:31.262Z,100.00
2023-04-12T10:12:58.629Z,100.00
2023-04-12T10:15:25.983Z,100.00
2023-04-12T10:17:57.656Z,100.00
2023-04-12T10:20:28.975Z,100.00
2023-04-12T10:22:59.304Z,100.00
2023-04-12T10:25:31.034Z,100.00
2023-04-12T10:28:13.710Z,100.00
2023-04-12T10:30:40.743Z,100.00
2023-04-12T10:33:10.488Z,100.00
2023-04-12T10:36:03.096Z,100.00
2023-04-12T10:38:37.364Z,100.00
2023-04-12T10:41:22.549Z,100.00
2023-04-12T10:43:54.704Z,100.00
2023-04-12T10:46:38.680Z,100.00
2023-04-12T10:49:13.868Z,100.00
2023-04-12T10:52:01.752Z,100.00
2023-04-12T10:54:36.314Z,100.00
2023-04-12T10:57:05.106Z,100.00
2023-04-12T10:59:55.636Z,100.00
2023-04-12T11:02:23.217Z,100.00
2023-04-12T11:05:10.212Z,100.00
2023-04-12T11:08:00.790Z,100.00
2023-04-12T11:10:41.423Z,100.00
2023-04-12T11:13:15.046Z,100.00
2023-04-12T11:15:42.343Z,100.00
2023-04-12T11:18:12.579Z,100.00
2023-04-12T11:20:42.870Z,100.00
2023-04-12T11:23:11.753Z,100.00
2023-04-12T11:25:38.918Z,100.00
2023-04-12T11:28:14.075Z,100.00
2023-04-12T11:30:57.719Z,100.00
2023-04-12T11:33:38.236Z,100.00
2023-04-12T11:36:12.686Z,100.00
2023-04-12T11:38:40.626Z,100.00
2023-04-12T11:41:09.553Z,100.00
2023-04-12T11:43:38.620Z,100.00
2023-04-12T11:46:06.104Z,100.00
2023-04-12T11:48:33.296Z,100.00
2023-04-12T11:51:11.035Z,100.00
2023-04-12T11:53:38.934Z,100.00
2023-04-12T11:56:06.343Z,100.00
2023-04-12T11:58:33.555Z,100.00
2023-04-12T12:01:00.733Z,100.00
2023-04-12T12:03:28.210Z,100.00
2023-04-12T12:05:55.598Z,100.00
2023-04-12T12:08:24.348Z,100.00
2023-04-12T12:11:06.510Z,100.00
2023-04-12T12:13:53.499Z,100.00
2023-04-12T12:16:29.265Z,100.00
2023-04-12T12:18:57.233Z,100.00
2023-04-12T12:21:26.233Z,100.00
2023-04-12T12:23:53.240Z,100.00
2023-04-12T12:26:30.638Z,100.00
2023-04-12T12:29:00.120Z,100.00
2023-04-12T12:31:28.368Z,100.00
2023-04-12T12:34:05.846Z,100.00
2023-04-12T12:36:38.583Z,100.00
2023-04-12T12:39:11.546Z,100.00
2023-04-12T12:41:41.140Z,100.00
2023-04-12T12:44:08.677Z,100.00
2023-04-12T12:49:06.059Z,100.00
2023-04-12T12:51:33.240Z,100.00
2023-04-12T12:54:01.218Z,100.00
2023-04-12T12:56:28.174Z,100.00
2023-04-12T12:58:55.375Z,100.00
2023-04-12T13:01:22.367Z,100.00
2023-04-12T13:03:49.655Z,100.00
2023-04-12T13:06:16.865Z,100.00
2023-04-12T13:08:43.800Z,100.00
2023-04-12T13:11:10.940Z,100.00
2023-04-12T13:13:37.902Z,100.00
2023-04-12T13:16:05.611Z,100.00
2023-04-12T13:18:32.599Z,100.00
2023-04-12T13:20:59.566Z,100.00
2023-04-12T13:23:26.527Z,100.00
2023-04-12T13:25:53.498Z,100.00
2023-04-12T13:28:21.455Z,100.00
2023-04-12T13:30:48.703Z,100.00
2023-04-12T13:33:19.322Z,100.00
2023-04-12T13:35:48.126Z,100.00
2023-04-12T13:38:15.001Z,100.00
2023-04-12T13:40:41.999Z,100.00
2023-04-12T13:43:08.953Z,100.00
2023-04-12T13:45:36.141Z,100.00
2023-04-12T13:48:03.319Z,100.00
2023-04-12T13:50:30.360Z,100.00
2023-04-12T13:52:57.338Z,100.00
2023-04-12T13:55:24.238Z,100.00
2023-04-12T13:57:51.183Z,100.00
2023-04-12T14:00:19.540Z,100.00
2023-04-12T14:02:46.745Z,100.00
2023-04-12T14:05:14.076Z,100.00
2023-04-12T14:07:41.174Z,100.00
2023-04-12T14:10:08.903Z,100.00
2023-04-12T14:12:36.067Z,100.00
2023-04-12T14:15:03.441Z,100.00
2023-04-12T14:17:32.574Z,100.00
2023-04-12T14:20:00.423Z,100.00
2023-04-12T14:22:27.949Z,100.00
2023-04-12T14:24:55.082Z,100.00
2023-04-12T14:27:22.417Z,100.00
2023-04-12T14:29:51.899Z,100.00
2023-04-12T14:32:18.942Z,100.00
2023-04-12T14:34:46.535Z,100.00
2023-04-12T14:37:13.707Z,100.00
2023-04-12T14:39:40.856Z,100.00
2023-04-12T14:42:07.784Z,100.00
2023-04-12T14:44:34.734Z,100.00
2023-04-12T14:47:01.691Z,100.00
2023-04-12T14:49:32.839Z,100.00
2023-04-12T14:52:00.785Z,100.00
2023-04-12T14:54:27.709Z,100.00
2023-04-12T14:56:56.107Z,100.00
2023-04-12T14:59:23.492Z,100.00
2023-04-12T15:01:52.413Z,100.00
2023-04-12T15:04:20.253Z,100.00
2023-04-12T15:06:47.532Z,100.00
2023-04-12T15:09:15.844Z,100.00
2023-04-12T15:11:46.517Z,100.00
2023-04-12T15:14:18.130Z,100.00
2023-04-12T15:16:49.183Z,100.00
2023-04-12T15:19:21.104Z,100.00
2023-04-12T15:21:51.296Z,100.00
2023-04-12T15:24:27.359Z,100.00
2023-04-12T15:26:54.504Z,100.00
2023-04-12T15:29:26.688Z,100.00
2023-04-12T15:31:56.074Z,100.00
2023-04-12T15:34:28.324Z,100.00
2023-04-12T15:36:55.274Z,100.00
2023-04-12T15:39:22.486Z,100.00
2023-04-12T15:41:49.403Z,100.00
2023-04-12T15:44:16.783Z,100.00
2023-04-12T15:46:53.318Z,100.00
2023-04-12T15:49:31.322Z,100.00
2023-04-12T15:51:59.554Z,100.00
2023-04-12T15:54:26.594Z,100.00
2023-04-12T15:56:53.570Z,100.00
2023-04-12T15:59:20.542Z,100.00
2023-04-12T16:01:48.679Z,100.00
2023-04-12T16:04:18.711Z,100.00
2023-04-12T16:06:46.539Z,100.00
2023-04-12T16:09:14.428Z,100.00
2023-04-12T16:11:43.521Z,100.00
2023-04-12T16:14:11.441Z,100.00
2023-04-12T16:16:40.378Z,100.00
2023-04-12T16:19:08.361Z,100.00
2023-04-12T16:21:35.909Z,100.00
2023-04-12T16:24:03.294Z,100.00
2023-04-12T16:26:30.331Z,100.00
2023-04-12T16:28:57.937Z,100.00
2023-04-12T16:31:26.387Z,100.00
2023-04-12T16:33:54.004Z,100.00
2023-04-12T16:36:23.427Z,100.00
2023-04-12T16:38:59.172Z,100.00
2023-04-12T16:41:26.480Z,100.00
2023-04-12T16:43:55.017Z,100.00
2023-04-12T16:46:22.759Z,100.00
2023-04-12T16:48:49.958Z,100.00
2023-04-12T16:51:17.545Z,100.00
2023-04-12T16:53:44.461Z,100.00
2023-04-12T16:56:11.535Z,100.00
2023-04-12T16:58:38.453Z,100.00
2023-04-12T17:01:05.746Z,100.00
2023-04-12T17:03:33.299Z,100.00
2023-04-12T17:06:00.504Z,100.00
2023-04-12T17:08:27.563Z,100.00
2023-04-12T17:10:54.609Z,100.00
2023-04-12T17:13:22.341Z,100.00
2023-04-12T17:15:49.333Z,100.00
2023-04-12T17:18:16.419Z,100.00
2023-04-12T17:20:44.035Z,100.00
2023-04-12T17:23:11.439Z,100.00
2023-04-12T17:25:38.737Z,100.00
2023-04-12T17:28:07.862Z,100.00
2023-04-12T17:30:34.860Z,100.00
2023-04-12T17:33:01.981Z,100.00
2023-04-12T17:35:29.412Z,100.00
2023-04-12T17:37:59.238Z,100.00
2023-04-12T17:40:26.185Z,100.00
2023-04-12T17:42:53.197Z,100.00
2023-04-12T17:45:21.740Z,100.00
2023-04-12T17:47:48.988Z,100.00
2023-04-12T17:50:15.963Z,100.00
2023-04-12T17:52:42.861Z,100.00
2023-04-12T17:55:10.333Z,100.00
2023-04-12T17:57:37.317Z,100.00
2023-04-12T18:00:09.270Z,100.00
2023-04-12T18:02:40.612Z,100.00
2023-04-12T18:05:07.983Z,100.00
2023-04-12T18:07:35.394Z,100.00
2023-04-12T18:10:03.016Z,100.00
2023-04-12T18:12:32.831Z,100.00
2023-04-12T18:14:59.950Z,100.00
2023-04-12T18:17:27.101Z,100.00
2023-04-12T18:19:54.703Z,100.00
2023-04-12T18:22:21.877Z,100.00
2023-04-12T18:24:48.838Z,100.00
2023-04-12T18:27:16.080Z,100.00
2023-04-12T18:29:43.021Z,100.00
2023-04-12T18:32:09.871Z,100.00
2023-04-12T18:34:36.749Z,100.00
2023-04-12T18:37:05.967Z,100.00
2023-04-12T18:39:35.383Z,100.00
2023-04-12T18:42:02.670Z,100.00
2023-04-12T18:44:30.519Z,100.00
2023-04-12T18:46:57.458Z,100.00
2023-04-12T18:49:24.544Z,100.00
2023-04-12T18:51:53.171Z,100.00
2023-04-12T18:54:21.014Z,100.00
2023-04-12T18:56:47.980Z,100.00
2023-04-12T18:59:17.583Z,100.00
2023-04-12T19:01:45.885Z,100.00
2023-04-12T19:04:13.067Z,100.00
2023-04-12T19:06:40.066Z,100.00
2023-04-12T19:09:08.222Z,100.00
2023-04-12T19:11:37.090Z,100.00
2023-04-12T19:14:04.424Z,100.00
2023-04-12T19:16:32.008Z,100.00
2023-04-12T19:19:00.174Z,100.00
2023-04-12T19:21:29.199Z,100.00
2023-04-12T19:23:56.394Z,100.00
2023-04-12T19:26:23.632Z,100.00
2023-04-12T19:28:55.586Z,100.00
2023-04-12T19:31:23.891Z,100.00
2023-04-12T19:33:50.986Z,100.00
2023-04-12T19:36:17.851Z,100.00
2023-04-12T19:38:47.756Z,100.00
2023-04-12T19:41:17.502Z,100.00
2023-04-12T19:43:44.405Z,100.00
2023-04-12T19:46:11.723Z,100.00
2023-04-12T19:48:38.740Z,100.00
2023-04-12T19:51:05.831Z,100.00
2023-04-12T19:53:33.913Z,100.00
2023-04-12T19:56:03.892Z,100.00
2023-04-12T19:58:32.002Z,100.00
2023-04-12T20:01:02.144Z,100.00
2023-04-12T20:03:29.864Z,100.00
2023-04-12T20:05:58.870Z,100.00
2023-04-12T20:08:28.453Z,100.00
2023-04-12T20:10:56.210Z,100.00
2023-04-12T20:13:23.271Z,100.00
2023-04-12T20:15:50.979Z,100.00
2023-04-12T20:18:17.924Z,100.00
2023-04-12T20:20:45.050Z,100.00
2023-04-12T20:23:15.370Z,100.00
2023-04-12T20:25:42.624Z,100.00
2023-04-12T20:28:09.932Z,100.00
2023-04-12T20:30:37.210Z,100.00
2023-04-12T20:33:04.761Z,100.00
2023-04-12T20:35:32.225Z,100.00
2023-04-12T20:37:59.972Z,100.00
2023-04-12T20:40:29.550Z,100.00
2023-04-12T20:42:56.868Z,100.00
2023-04-12T20:45:23.969Z,100.00
2023-04-12T20:47:51.122Z,100.00
2023-04-12T20:50:22.405Z,100.00
2023-04-12T20:52:51.823Z,100.00
2023-04-12T20:55:18.802Z,100.00
2023-04-12T20:57:46.411Z,100.00
2023-04-12T21:00:18.194Z,100.00
2023-04-12T21:02:45.956Z,100.00
2023-04-12T21:05:16.675Z,100.00
2023-04-12T21:07:43.720Z,100.00
2023-04-12T21:10:14.654Z,100.00
2023-04-12T21:12:42.627Z,100.00
2023-04-12T21:15:11.695Z,100.00
2023-04-12T21:17:39.141Z,100.00
2023-04-12T21:20:13.299Z,100.00
2023-04-12T21:22:45.042Z,100.00
2023-04-12T21:25:14.986Z,100.00
2023-04-12T21:27:43.664Z,100.00
2023-04-12T21:30:11.216Z,100.00
2023-04-12T21:32:38.583Z,100.00
2023-04-12T21:35:07.258Z,100.00
2023-04-12T21:37:35.983Z,100.00
2023-04-12T21:40:10.378Z,100.00
2023-04-12T21:42:38.368Z,100.00
2023-04-12T21:45:08.570Z,100.00
2023-04-12T21:47:35.681Z,100.00
2023-04-12T21:50:03.010Z,100.00
2023-04-12T21:52:29.960Z,100.00
2023-04-12T21:54:56.852Z,100.00
2023-04-12T21:57:23.765Z,100.00
2023-04-12T21:59:50.986Z,100.00
2023-04-12T22:02:17.926Z,100.00
2023-04-12T22:04:44.982Z,100.00
2023-04-12T22:07:13.048Z,100.00
2023-04-12T22:09:41.261Z,100.00
2023-04-12T22:12:09.128Z,100.00
2023-04-12T22:14:36.945Z,100.00
2023-04-12T22:17:05.948Z,100.00
2023-04-12T22:19:32.946Z,100.00
2023-04-12T22:21:59.815Z,100.00
2023-04-12T22:24:26.724Z,100.00
2023-04-12T22:26:57.347Z,100.00
2023-04-12T22:29:25.267Z,100.00
2023-04-12T22:31:52.623Z,100.00
2023-04-12T22:34:19.683Z,100.00
2023-04-12T22:36:51.510Z,100.00
2023-04-12T22:39:21.544Z,100.00
2023-04-12T22:41:53.218Z,100.00
2023-04-12T22:44:22.141Z,100.00
2023-04-12T22:46:50.200Z,100.00
2023-04-12T22:49:19.838Z,100.00
2023-04-12T22:51:46.793Z,100.00
2023-04-12T22:54:13.935Z,100.00
2023-04-12T22:56:46.931Z,100.00
2023-04-12T22:59:22.209Z,100.00
2023-04-12T23:01:49.355Z,100.00
2023-04-12T23:04:16.898Z,100.00
2023-04-12T23:06:44.480Z,100.00
2023-04-12T23:09:12.811Z,100.00
2023-04-12T23:11:41.700Z,100.00
2023-04-12T23:14:09.937Z,100.00
2023-04-12T23:16:47.021Z,100.00
2023-04-12T23:19:14.676Z,100.00
2023-04-12T23:21:42.894Z,100.00
2023-04-12T23:24:16.242Z,100.00
2023-04-12T23:26:45.102Z,100.00
2023-04-12T23:29:12.638Z,100.00
2023-04-12T23:31:41.788Z,100.00
2023-04-12T23:34:08.725Z,100.00
2023-04-12T23:36:36.669Z,100.00
2023-04-12T23:39:08.484Z,100.00
2023-04-12T23:41:35.615Z,100.00
2023-04-12T23:44:02.509Z,100.00
2023-04-12T23:46:29.704Z,100.00
2023-04-12T23:48:56.742Z,100.00
2023-04-12T23:51:23.699Z,100.00
2023-04-12T23:53:50.629Z,100.00
2023-04-12T23:56:17.635Z,100.00
2023-04-12T23:58:44.546Z,100.00
